sensor_id;sensor_type;location;lat;lon;timestamp;pressure;altitude;pressure_sealevel;temperature;humidity
81125;BME280;72192;52.114;5.424;2023-09-08T00:01:57;101808.19;;;16.47;85.74
81125;BME280;72192;52.114;5.424;2023-09-08T00:04:45;101807.38;;;16.38;84.98
81125;BME280;72192;52.114;5.424;2023-09-08T00:07:33;101809.97;;;16.31;85.91
81125;BME280;72192;52.114;5.424;2023-09-08T00:10:22;101805.91;;;16.27;86.38
81125;BME280;72192;52.114;5.424;2023-09-08T00:13:10;101803.72;;;16.23;87.09
81125;BME280;72192;52.114;5.424;2023-09-08T00:15:59;101803.72;;;16.23;87.34
81125;BME280;72192;52.114;5.424;2023-09-08T00:18:48;101804.78;;;16.14;86.49
81125;BME280;72192;52.114;5.424;2023-09-08T00:21:37;101800.22;;;16.06;87.47
81125;BME280;72192;52.114;5.424;2023-09-08T00:24:26;101803.28;;;16.03;87.68
81125;BME280;72192;52.114;5.424;2023-09-08T00:27:14;101811.97;;;15.98;86.89
81125;BME280;72192;52.114;5.424;2023-09-08T00:30:02;101814.22;;;15.95;87.73
81125;BME280;72192;52.114;5.424;2023-09-08T00:32:52;101813.19;;;15.96;88.70
81125;BME280;72192;52.114;5.424;2023-09-08T00:35:44;101813.53;;;15.93;88.50
81125;BME280;72192;52.114;5.424;2023-09-08T00:38:36;101810.81;;;15.93;88.97
81125;BME280;72192;52.114;5.424;2023-09-08T00:41:24;101806.91;;;15.87;89.14
81125;BME280;72192;52.114;5.424;2023-09-08T00:44:12;101810.00;;;15.84;88.39
81125;BME280;72192;52.114;5.424;2023-09-08T00:47:00;101809.66;;;15.79;89.27
81125;BME280;72192;52.114;5.424;2023-09-08T00:49:48;101805.75;;;15.73;88.39
81125;BME280;72192;52.114;5.424;2023-09-08T00:52:37;101810.50;;;15.71;89.85
81125;BME280;72192;52.114;5.424;2023-09-08T00:55:26;101805.75;;;15.73;90.58
81125;BME280;72192;52.114;5.424;2023-09-08T00:58:14;101810.84;;;15.76;91.04
81125;BME280;72192;52.114;5.424;2023-09-08T01:00:43;101800.81;;;15.77;91.60
81125;BME280;72192;52.114;5.424;2023-09-08T01:03:31;101802.50;;;15.70;90.61
81125;BME280;72192;52.114;5.424;2023-09-08T01:06:19;101801.66;;;15.69;90.87
81125;BME280;72192;52.114;5.424;2023-09-08T01:09:09;101800.81;;;15.61;91.26
81125;BME280;72192;52.114;5.424;2023-09-08T01:12:05;101786.88;;;15.56;90.51
81125;BME280;72192;52.114;5.424;2023-09-08T01:14:55;101800.81;;;15.53;90.24
81125;BME280;72192;52.114;5.424;2023-09-08T01:17:42;101792.81;;;15.51;89.31
81125;BME280;72192;52.114;5.424;2023-09-08T01:20:42;101806.09;;;15.54;90.04
81125;BME280;72192;52.114;5.424;2023-09-08T01:24:17;101797.75;;;15.56;90.15
81125;BME280;72192;52.114;5.424;2023-09-08T01:27:24;101798.59;;;15.56;90.32
81125;BME280;72192;52.114;5.424;2023-09-08T01:30:17;101800.13;;;15.50;90.03
81125;BME280;72192;52.114;5.424;2023-09-08T01:33:07;101802.84;;;15.50;90.48
81125;BME280;72192;52.114;5.424;2023-09-08T01:35:55;101799.09;;;15.52;91.08
81125;BME280;72192;52.114;5.424;2023-09-08T01:38:43;101806.09;;;15.54;90.17
81125;BME280;72192;52.114;5.424;2023-09-08T01:41:31;101803.22;;;15.56;90.78
81125;BME280;72192;52.114;5.424;2023-09-08T01:44:19;101802.00;;;15.58;90.71
81125;BME280;72192;52.114;5.424;2023-09-08T01:47:07;101803.69;;;15.59;90.02
81125;BME280;72192;52.114;5.424;2023-09-08T01:49:55;101802.84;;;15.59;90.02
81125;BME280;72192;52.114;5.424;2023-09-08T01:52:44;101798.44;;;15.58;90.93
81125;BME280;72192;52.114;5.424;2023-09-08T01:55:32;101799.97;;;15.52;90.93
81125;BME280;72192;52.114;5.424;2023-09-08T01:58:22;101805.75;;;15.49;91.57
81125;BME280;72192;52.114;5.424;2023-09-08T02:01:10;101800.66;;;15.54;91.76
81125;BME280;72192;52.114;5.424;2023-09-08T02:03:58;101796.56;;;15.50;91.39
81125;BME280;72192;52.114;5.424;2023-09-08T02:06:46;101802.38;;;15.47;91.52
81125;BME280;72192;52.114;5.424;2023-09-08T02:09:36;101804.06;;;15.48;91.96
81125;BME280;72192;52.114;5.424;2023-09-08T02:12:26;101806.59;;;15.49;91.00
81125;BME280;72192;52.114;5.424;2023-09-08T02:15:26;101802.69;;;15.52;90.58
81125;BME280;72192;52.114;5.424;2023-09-08T02:18:14;101799.81;;;15.45;90.12
81125;BME280;72192;52.114;5.424;2023-09-08T02:21:02;101800.31;;;15.41;90.55
81125;BME280;72192;52.114;5.424;2023-09-08T02:23:51;101792.16;;;15.41;90.54
81125;BME280;72192;52.114;5.424;2023-09-08T02:26:40;101803.56;;;15.44;90.71
81125;BME280;72192;52.114;5.424;2023-09-08T02:29:28;101799.47;;;15.40;90.76
81125;BME280;72192;52.114;5.424;2023-09-08T02:32:19;101793.72;;;15.35;89.74
81125;BME280;72192;52.114;5.424;2023-09-08T02:35:07;101793.88;;;15.26;89.91
81125;BME280;72192;52.114;5.424;2023-09-08T02:37:56;101791.84;;;15.19;89.93
81125;BME280;72192;52.114;5.424;2023-09-08T02:40:45;101788.78;;;15.14;90.64
81125;BME280;72192;52.114;5.424;2023-09-08T02:43:34;101786.38;;;15.11;90.38
81125;BME280;72192;52.114;5.424;2023-09-08T02:46:22;101786.06;;;15.06;91.63
81125;BME280;72192;52.114;5.424;2023-09-08T02:49:09;101786.38;;;15.03;90.72
81125;BME280;72192;52.114;5.424;2023-09-08T02:51:58;101793.03;;;15.09;91.05
81125;BME280;72192;52.114;5.424;2023-09-08T02:54:46;101797.28;;;15.11;90.75
81125;BME280;72192;52.114;5.424;2023-09-08T02:57:34;101802.41;;;15.14;91.31
81125;BME280;72192;52.114;5.424;2023-09-08T03:00:24;101798.78;;;15.14;91.26
81125;BME280;72192;52.114;5.424;2023-09-08T03:03:12;101799.16;;;15.19;91.53
81125;BME280;72192;52.114;5.424;2023-09-08T03:06:02;101801.69;;;15.20;90.97
81125;BME280;72192;52.114;5.424;2023-09-08T03:08:50;101799.66;;;15.23;91.34
81125;BME280;72192;52.114;5.424;2023-09-08T03:11:40;101802.22;;;15.24;91.54
81125;BME280;72192;52.114;5.424;2023-09-08T03:14:28;101801.19;;;15.25;90.93
81125;BME280;72192;52.114;5.424;2023-09-08T03:17:17;101798.13;;;15.20;90.57
81125;BME280;72192;52.114;5.424;2023-09-08T03:20:06;101800.34;;;15.16;90.93
81125;BME280;72192;52.114;5.424;2023-09-08T03:22:58;101796.78;;;15.16;91.16
81125;BME280;72192;52.114;5.424;2023-09-08T03:25:48;101791.50;;;15.14;91.22
81125;BME280;72192;52.114;5.424;2023-09-08T03:28:38;101789.63;;;15.15;90.76
81125;BME280;72192;52.114;5.424;2023-09-08T03:31:26;101788.94;;;15.13;90.59
81125;BME280;72192;52.114;5.424;2023-09-08T03:34:16;101785.19;;;15.14;90.58
81125;BME280;72192;52.114;5.424;2023-09-08T03:37:07;101787.91;;;15.14;90.22
81125;BME280;72192;52.114;5.424;2023-09-08T03:39:56;101779.06;;;15.12;89.79
81125;BME280;72192;52.114;5.424;2023-09-08T03:42:44;101781.13;;;15.10;89.76
81125;BME280;72192;52.114;5.424;2023-09-08T03:45:32;101792.53;;;15.05;89.15
81125;BME280;72192;52.114;5.424;2023-09-08T03:48:20;101782.66;;;14.96;89.30
81125;BME280;72192;52.114;5.424;2023-09-08T03:51:08;101773.78;;;14.94;89.34
81125;BME280;72192;52.114;5.424;2023-09-08T03:53:56;101779.94;;;14.88;88.78
81125;BME280;72192;52.114;5.424;2023-09-08T03:56:44;101769.03;;;14.80;90.08
81125;BME280;72192;52.114;5.424;2023-09-08T03:59:31;101772.41;;;14.74;89.35
81125;BME280;72192;52.114;5.424;2023-09-08T04:02:20;101771.25;;;14.68;89.86
81125;BME280;72192;52.114;5.424;2023-09-08T04:05:08;101769.53;;;14.67;90.16
81125;BME280;72192;52.114;5.424;2023-09-08T04:07:57;101770.56;;;14.66;90.11
81125;BME280;72192;52.114;5.424;2023-09-08T04:10:45;101767.97;;;14.64;90.32
81125;BME280;72192;52.114;5.424;2023-09-08T04:13:33;101775.66;;;14.69;90.77
81125;BME280;72192;52.114;5.424;2023-09-08T04:16:21;101774.28;;;14.73;90.26
81125;BME280;72192;52.114;5.424;2023-09-08T04:19:11;101771.25;;;14.68;89.89
81125;BME280;72192;52.114;5.424;2023-09-08T04:21:59;101770.03;;;14.62;89.79
81125;BME280;72192;52.114;5.424;2023-09-08T04:24:47;101772.06;;;14.60;89.89
81125;BME280;72192;52.114;5.424;2023-09-08T04:27:36;101768.50;;;14.60;90.32
81125;BME280;72192;52.114;5.424;2023-09-08T04:30:24;101773.44;;;14.56;90.38
81125;BME280;72192;52.114;5.424;2023-09-08T04:33:12;101772.59;;;14.56;91.08
81125;BME280;72192;52.114;5.424;2023-09-08T04:36:00;101769.69;;;14.57;90.73
81125;BME280;72192;52.114;5.424;2023-09-08T04:38:48;101775.47;;;14.62;91.15
81125;BME280;72192;52.114;5.424;2023-09-08T04:41:37;101775.16;;;14.66;90.99
81125;BME280;72192;52.114;5.424;2023-09-08T04:44:25;101779.56;;;14.67;91.12
81125;BME280;72192;52.114;5.424;2023-09-08T04:47:13;101773.09;;;14.68;91.13
81125;BME280;72192;52.114;5.424;2023-09-08T04:50:01;101775.66;;;14.69;90.66
81125;BME280;72192;52.114;5.424;2023-09-08T04:52:50;101771.06;;;14.70;90.98
81125;BME280;72192;52.114;5.424;2023-09-08T04:55:38;101775.84;;;14.76;91.00
81125;BME280;72192;52.114;5.424;2023-09-08T04:58:26;101772.09;;;14.77;90.01
81125;BME280;72192;52.114;5.424;2023-09-08T05:01:14;101775.66;;;14.77;89.71
81125;BME280;72192;52.114;5.424;2023-09-08T05:04:04;101777.53;;;14.77;89.71
81125;BME280;72192;52.114;5.424;2023-09-08T05:06:52;101779.06;;;14.71;89.69
81125;BME280;72192;52.114;5.424;2023-09-08T05:09:40;101770.56;;;14.66;89.35
81125;BME280;72192;52.114;5.424;2023-09-08T05:12:28;101773.97;;;14.68;89.11
81125;BME280;72192;52.114;5.424;2023-09-08T05:15:16;101773.28;;;14.66;89.29
81125;BME280;72192;52.114;5.424;2023-09-08T05:18:07;101776.31;;;14.63;88.94
81125;BME280;72192;52.114;5.424;2023-09-08T05:20:55;101768.34;;;14.61;88.74
81125;BME280;72192;52.114;5.424;2023-09-08T05:23:44;101776.13;;;14.64;89.00
81125;BME280;72192;52.114;5.424;2023-09-08T05:26:32;101779.41;;;14.68;88.56
81125;BME280;72192;52.114;5.424;2023-09-08T05:29:20;101780.44;;;14.75;89.27
81125;BME280;72192;52.114;5.424;2023-09-08T05:32:08;101780.94;;;14.87;88.62
81125;BME280;72192;52.114;5.424;2023-09-08T05:34:56;101779.59;;;14.99;89.20
81125;BME280;72192;52.114;5.424;2023-09-08T05:37:45;101777.56;;;15.09;88.99
81125;BME280;72192;52.114;5.424;2023-09-08T05:40:34;101785.38;;;15.20;89.01
81125;BME280;72192;52.114;5.424;2023-09-08T05:43:26;101781.63;;;15.30;89.17
81125;BME280;72192;52.114;5.424;2023-09-08T05:46:14;101789.44;;;15.41;88.54
81125;BME280;72192;52.114;5.424;2023-09-08T05:49:03;101789.06;;;15.52;88.32
81125;BME280;72192;52.114;5.424;2023-09-08T05:51:51;101787.88;;;15.63;87.95
81125;BME280;72192;52.114;5.424;2023-09-08T05:54:39;101787.69;;;15.72;87.89
81125;BME280;72192;52.114;5.424;2023-09-08T05:57:28;101793.28;;;15.87;87.63
81125;BME280;72192;52.114;5.424;2023-09-08T06:00:16;101795.25;;;16.01;87.20
81125;BME280;72192;52.114;5.424;2023-09-08T06:03:05;101800.00;;;16.16;86.98
81125;BME280;72192;52.114;5.424;2023-09-08T06:05:53;101796.31;;;16.31;86.83
81125;BME280;72192;52.114;5.424;2023-09-08T06:08:41;101801.53;;;16.49;86.53
81125;BME280;72192;52.114;5.424;2023-09-08T06:11:29;101794.47;;;16.63;86.66
81125;BME280;72192;52.114;5.424;2023-09-08T06:14:17;101803.97;;;16.75;86.19
81125;BME280;72192;52.114;5.424;2023-09-08T06:17:05;101806.22;;;16.95;86.41
81125;BME280;72192;52.114;5.424;2023-09-08T06:19:53;101808.34;;;17.07;86.23
81125;BME280;72192;52.114;5.424;2023-09-08T06:22:41;101802.19;;;17.28;86.27
81125;BME280;72192;52.114;5.424;2023-09-08T06:25:29;101807.63;;;17.51;85.29
81125;BME280;72192;52.114;5.424;2023-09-08T06:28:17;101799.50;;;17.81;84.54
81125;BME280;72192;52.114;5.424;2023-09-08T06:31:05;101789.88;;;18.14;84.01
81125;BME280;72192;52.114;5.424;2023-09-08T06:33:53;101799.66;;;18.74;82.14
81125;BME280;72192;52.114;5.424;2023-09-08T06:36:42;101792.66;;;20.33;75.81
81125;BME280;72192;52.114;5.424;2023-09-08T06:39:30;101799.53;;;21.44;71.44
81125;BME280;72192;52.114;5.424;2023-09-08T06:42:18;101803.00;;;22.18;68.60
81125;BME280;72192;52.114;5.424;2023-09-08T06:45:07;101807.28;;;21.94;69.19
81125;BME280;72192;52.114;5.424;2023-09-08T06:47:55;101809.00;;;21.75;69.80
81125;BME280;72192;52.114;5.424;2023-09-08T06:50:43;101795.66;;;22.50;67.65
81125;BME280;72192;52.114;5.424;2023-09-08T06:53:32;101801.59;;;23.73;63.86
81125;BME280;72192;52.114;5.424;2023-09-08T06:56:20;101792.06;;;24.49;61.14
81125;BME280;72192;52.114;5.424;2023-09-08T06:59:08;101791.59;;;25.12;59.17
81125;BME280;72192;52.114;5.424;2023-09-08T07:01:57;101803.19;;;25.67;57.28
81125;BME280;72192;52.114;5.424;2023-09-08T07:04:45;101801.25;;;25.56;57.14
81125;BME280;72192;52.114;5.424;2023-09-08T07:07:24;101803.19;;;25.67;56.15
81125;BME280;72192;52.114;5.424;2023-09-08T07:10:13;101804.41;;;25.95;56.16
81125;BME280;72192;52.114;5.424;2023-09-08T07:13:02;101812.25;;;25.98;56.11
81125;BME280;72192;52.114;5.424;2023-09-08T07:15:50;101811.34;;;25.39;57.25
81125;BME280;72192;52.114;5.424;2023-09-08T07:18:38;101801.78;;;24.81;58.05
81125;BME280;72192;52.114;5.424;2023-09-08T07:21:30;101806.09;;;24.29;60.27
81125;BME280;72192;52.114;5.424;2023-09-08T07:24:18;101808.06;;;23.85;61.56
81125;BME280;72192;52.114;5.424;2023-09-08T07:27:09;101807.34;;;23.71;62.33
81125;BME280;72192;52.114;5.424;2023-09-08T07:30:02;101815.53;;;23.60;63.38
81125;BME280;72192;52.114;5.424;2023-09-08T07:32:50;101807.25;;;23.60;63.11
81125;BME280;72192;52.114;5.424;2023-09-08T07:35:39;101807.34;;;23.71;62.64
81125;BME280;72192;52.114;5.424;2023-09-08T07:38:30;101810.88;;;23.79;63.10
81125;BME280;72192;52.114;5.424;2023-09-08T07:41:20;101811.47;;;23.62;62.78
81125;BME280;72192;52.114;5.424;2023-09-08T07:44:08;101817.00;;;23.56;64.12
81125;BME280;72192;52.114;5.424;2023-09-08T07:46:57;101812.34;;;23.56;63.71
81125;BME280;72192;52.114;5.424;2023-09-08T07:49:46;101813.16;;;23.63;63.54
81125;BME280;72192;52.114;5.424;2023-09-08T07:52:35;101820.81;;;23.61;63.73
81125;BME280;72192;52.114;5.424;2023-09-08T07:55:18;101814.00;;;23.64;63.53
81125;BME280;72192;52.114;5.424;2023-09-08T07:58:09;101819.91;;;23.67;64.27
81125;BME280;72192;52.114;5.424;2023-09-08T08:00:58;101818.31;;;23.78;63.95
81125;BME280;72192;52.114;5.424;2023-09-08T08:03:51;101809.06;;;23.91;62.96
81125;BME280;72192;52.114;5.424;2023-09-08T08:06:31;101811.69;;;24.04;63.12
81125;BME280;72192;52.114;5.424;2023-09-08T08:09:11;101805.78;;;24.19;63.22
81125;BME280;72192;52.114;5.424;2023-09-08T08:12:00;101811.81;;;24.27;63.26
81125;BME280;72192;52.114;5.424;2023-09-08T08:14:52;101802.25;;;24.30;63.30
81125;BME280;72192;52.114;5.424;2023-09-08T08:17:32;101803.56;;;24.46;62.74
81125;BME280;72192;52.114;5.424;2023-09-08T08:20:20;101813.44;;;24.53;62.48
81125;BME280;72192;52.114;5.424;2023-09-08T08:23:04;101810.13;;;24.63;61.92
81125;BME280;72192;52.114;5.424;2023-09-08T08:25:45;101804.13;;;24.66;62.02
81125;BME280;72192;52.114;5.424;2023-09-08T08:28:24;101804.31;;;24.83;61.68
81125;BME280;72192;52.114;5.424;2023-09-08T08:31:04;101800.50;;;24.96;61.24
81125;BME280;72192;52.114;5.424;2023-09-08T08:33:44;101796.97;;;25.07;61.55
81125;BME280;72192;52.114;5.424;2023-09-08T08:36:23;101805.53;;;25.17;59.84
81125;BME280;72192;52.114;5.424;2023-09-08T08:39:03;101790.41;;;25.20;60.11
81125;BME280;72192;52.114;5.424;2023-09-08T08:41:43;101802.66;;;25.35;60.15
81125;BME280;72192;52.114;5.424;2023-09-08T08:44:24;101803.06;;;25.39;60.43
81125;BME280;72192;52.114;5.424;2023-09-08T08:47:06;101808.34;;;25.52;60.21
81125;BME280;72192;52.114;5.424;2023-09-08T08:49:48;101804.75;;;25.52;59.55
81125;BME280;72192;52.114;5.424;2023-09-08T08:52:29;101799.56;;;25.55;58.70
81125;BME280;72192;52.114;5.424;2023-09-08T08:55:09;101798.38;;;25.63;58.87
81125;BME280;72192;52.114;5.424;2023-09-08T08:57:50;101808.34;;;25.64;58.81
81125;BME280;72192;52.114;5.424;2023-09-08T09:00:39;101806.78;;;25.56;58.94
81125;BME280;72192;52.114;5.424;2023-09-08T09:03:27;101804.50;;;25.65;58.99
81125;BME280;72192;52.114;5.424;2023-09-08T09:06:16;101807.53;;;25.75;58.73
81125;BME280;72192;52.114;5.424;2023-09-08T09:09:05;101799.25;;;25.87;58.41
81125;BME280;72192;52.114;5.424;2023-09-08T09:11:55;101799.00;;;25.88;58.62
81125;BME280;72192;52.114;5.424;2023-09-08T09:14:46;101801.25;;;26.03;58.06
81125;BME280;72192;52.114;5.424;2023-09-08T09:17:35;101805.25;;;26.07;58.66
81125;BME280;72192;52.114;5.424;2023-09-08T09:20:24;101800.97;;;26.28;58.68
81125;BME280;72192;52.114;5.424;2023-09-08T09:23:26;101803.28;;;26.19;58.51
81125;BME280;72192;52.114;5.424;2023-09-08T09:26:25;101811.25;;;26.16;59.04
81125;BME280;72192;52.114;5.424;2023-09-08T09:29:34;101801.81;;;26.40;58.91
81125;BME280;72192;52.114;5.424;2023-09-08T09:32:34;101799.69;;;26.59;57.28
81125;BME280;72192;52.114;5.424;2023-09-08T09:35:16;101793.84;;;26.72;57.26
81125;BME280;72192;52.114;5.424;2023-09-08T09:38:04;101802.97;;;26.84;56.27
81125;BME280;72192;52.114;5.424;2023-09-08T09:40:53;101802.06;;;26.96;56.96
81125;BME280;72192;52.114;5.424;2023-09-08T09:43:43;101797.16;;;27.14;55.82
81125;BME280;72192;52.114;5.424;2023-09-08T09:46:31;101794.06;;;27.28;55.80
81125;BME280;72192;52.114;5.424;2023-09-08T09:49:20;101795.91;;;27.39;55.53
81125;BME280;72192;52.114;5.424;2023-09-08T09:52:23;101807.00;;;27.72;54.88
81125;BME280;72192;52.114;5.424;2023-09-08T09:55:13;101797.56;;;27.90;53.74
81125;BME280;72192;52.114;5.424;2023-09-08T09:58:02;101791.81;;;27.97;53.67
81125;BME280;72192;52.114;5.424;2023-09-08T10:00:45;101797.94;;;27.99;53.17
81125;BME280;72192;52.114;5.424;2023-09-08T10:03:31;101795.56;;;28.08;52.54
81125;BME280;72192;52.114;5.424;2023-09-08T10:06:15;101783.88;;;28.06;52.29
81125;BME280;72192;52.114;5.424;2023-09-08T10:09:01;101781.50;;;28.14;52.97
81125;BME280;72192;52.114;5.424;2023-09-08T10:11:54;101794.03;;;28.17;52.01
81125;BME280;72192;52.114;5.424;2023-09-08T10:14:44;101788.09;;;28.30;52.59
81125;BME280;72192;52.114;5.424;2023-09-08T10:17:37;101787.25;;;28.51;50.95
81125;BME280;72192;52.114;5.424;2023-09-08T10:20:25;101781.19;;;28.81;50.97
81125;BME280;72192;52.114;5.424;2023-09-08T10:23:15;101781.19;;;28.81;49.86
81125;BME280;72192;52.114;5.424;2023-09-08T10:26:08;101786.53;;;28.88;50.38
81125;BME280;72192;52.114;5.424;2023-09-08T10:28:54;101785.25;;;28.96;50.54
81125;BME280;72192;52.114;5.424;2023-09-08T10:31:35;101782.91;;;28.88;50.36
81125;BME280;72192;52.114;5.424;2023-09-08T10:34:16;101779.44;;;28.97;50.54
81125;BME280;72192;52.114;5.424;2023-09-08T10:36:57;101785.88;;;29.03;50.34
81125;BME280;72192;52.114;5.424;2023-09-08T10:39:36;101780.63;;;29.06;49.90
81125;BME280;72192;52.114;5.424;2023-09-08T10:42:21;101778.28;;;29.25;49.25
81125;BME280;72192;52.114;5.424;2023-09-08T10:45:16;101769.59;;;29.17;49.97
81125;BME280;72192;52.114;5.424;2023-09-08T10:48:01;101769.66;;;29.27;50.07
81125;BME280;72192;52.114;5.424;2023-09-08T10:50:41;101770.56;;;29.32;50.52
81125;BME280;72192;52.114;5.424;2023-09-08T10:53:30;101769.25;;;29.45;49.36
81125;BME280;72192;52.114;5.424;2023-09-08T10:56:11;101777.09;;;29.48;49.18
81125;BME280;72192;52.114;5.424;2023-09-08T10:58:54;101772.69;;;29.52;50.10
81125;BME280;72192;52.114;5.424;2023-09-08T11:01:34;101776.03;;;29.54;49.80
81125;BME280;72192;52.114;5.424;2023-09-08T11:04:24;101778.31;;;29.62;49.47
81125;BME280;72192;52.114;5.424;2023-09-08T11:07:14;101779.50;;;29.77;50.11
81125;BME280;72192;52.114;5.424;2023-09-08T11:09:59;101767.25;;;29.73;48.85
81125;BME280;72192;52.114;5.424;2023-09-08T11:12:46;101776.38;;;29.68;49.27
81125;BME280;72192;52.114;5.424;2023-09-08T11:15:33;101763.13;;;29.80;48.59
81125;BME280;72192;52.114;5.424;2023-09-08T11:18:28;101766.19;;;29.89;49.19
81125;BME280;72192;52.114;5.424;2023-09-08T11:21:10;101769.00;;;29.89;49.41
81125;BME280;72192;52.114;5.424;2023-09-08T11:23:50;101769.25;;;29.87;49.26
81125;BME280;72192;52.114;5.424;2023-09-08T11:26:37;101765.91;;;29.85;48.69
81125;BME280;72192;52.114;5.424;2023-09-08T11:29:25;101773.81;;;30.04;48.76
81125;BME280;72192;52.114;5.424;2023-09-08T11:32:14;101767.25;;;30.25;48.98
81125;BME280;72192;52.114;5.424;2023-09-08T11:35:07;101767.50;;;30.18;47.76
81125;BME280;72192;52.114;5.424;2023-09-08T11:37:59;101770.00;;;30.15;47.68
81125;BME280;72192;52.114;5.424;2023-09-08T11:40:47;101772.31;;;30.38;47.82
81125;BME280;72192;52.114;5.424;2023-09-08T11:43:31;101774.53;;;30.31;47.77
81125;BME280;72192;52.114;5.424;2023-09-08T11:46:22;101769.84;;;30.52;47.64
81125;BME280;72192;52.114;5.424;2023-09-08T11:49:04;101761.75;;;30.55;47.62
81125;BME280;72192;52.114;5.424;2023-09-08T11:51:45;101765.75;;;30.70;47.19
81125;BME280;72192;52.114;5.424;2023-09-08T11:54:36;101761.00;;;30.86;47.13
81125;BME280;72192;52.114;5.424;2023-09-08T11:57:24;101763.81;;;30.91;46.51
81125;BME280;72192;52.114;5.424;2023-09-08T12:00:13;101764.66;;;31.01;46.49
81125;BME280;72192;52.114;5.424;2023-09-08T12:03:11;101761.59;;;31.03;46.93
81125;BME280;72192;52.114;5.424;2023-09-08T12:06:07;101756.84;;;31.08;46.43
81125;BME280;72192;52.114;5.424;2023-09-08T12:08:46;101756.59;;;31.25;45.52
81125;BME280;72192;52.114;5.424;2023-09-08T12:11:32;101757.97;;;31.33;46.53
81125;BME280;72192;52.114;5.424;2023-09-08T12:14:14;101749.84;;;31.67;45.94
81125;BME280;72192;52.114;5.424;2023-09-08T12:17:06;101755.03;;;32.04;43.93
81125;BME280;72192;52.114;5.424;2023-09-08T12:19:49;101755.78;;;32.25;44.07
81125;BME280;72192;52.114;5.424;2023-09-08T12:22:47;101751.13;;;32.65;43.09
81125;BME280;72192;52.114;5.424;2023-09-08T12:25:50;101754.41;;;32.77;41.59
81125;BME280;72192;52.114;5.424;2023-09-08T12:28:39;101753.19;;;32.93;41.49
81125;BME280;72192;52.114;5.424;2023-09-08T12:31:29;101742.00;;;33.22;41.88
81125;BME280;72192;52.114;5.424;2023-09-08T12:34:17;101749.78;;;33.30;40.50
81125;BME280;72192;52.114;5.424;2023-09-08T12:37:06;101754.06;;;33.52;39.67
81125;BME280;72192;52.114;5.424;2023-09-08T12:39:57;101751.69;;;33.40;39.60
81125;BME280;72192;52.114;5.424;2023-09-08T12:42:47;101752.97;;;33.77;39.38
81125;BME280;72192;52.114;5.424;2023-09-08T12:45:35;101747.63;;;34.04;39.70
81125;BME280;72192;52.114;5.424;2023-09-08T12:48:25;101747.41;;;33.72;39.26
81125;BME280;72192;52.114;5.424;2023-09-08T12:51:13;101742.13;;;33.70;39.14
81125;BME280;72192;52.114;5.424;2023-09-08T12:54:02;101740.91;;;34.05;38.39
81125;BME280;72192;52.114;5.424;2023-09-08T12:56:50;101738.94;;;34.06;38.32
81125;BME280;72192;52.114;5.424;2023-09-08T12:59:38;101733.31;;;34.48;38.61
81125;BME280;72192;52.114;5.424;2023-09-08T13:02:26;101731.09;;;35.02;37.33
81125;BME280;72192;52.114;5.424;2023-09-08T13:05:15;101727.78;;;35.14;36.89
81125;BME280;72192;52.114;5.424;2023-09-08T13:08:03;101723.69;;;35.39;36.25
81125;BME280;72192;52.114;5.424;2023-09-08T13:10:52;101727.75;;;35.32;36.71
81125;BME280;72192;52.114;5.424;2023-09-08T13:13:20;101728.94;;;35.59;35.15
81125;BME280;72192;52.114;5.424;2023-09-08T13:15:48;101732.53;;;35.92;34.80
81125;BME280;72192;52.114;5.424;2023-09-08T13:18:17;101725.41;;;36.22;35.30
81125;BME280;72192;52.114;5.424;2023-09-08T13:21:06;101711.94;;;36.33;34.81
81125;BME280;72192;52.114;5.424;2023-09-08T13:23:54;101722.16;;;36.29;34.40
81125;BME280;72192;52.114;5.424;2023-09-08T13:26:43;101709.66;;;36.21;34.70
81125;BME280;72192;52.114;5.424;2023-09-08T13:29:31;101709.75;;;36.30;35.69
81125;BME280;72192;52.114;5.424;2023-09-08T13:32:25;101705.25;;;37.01;34.01
81125;BME280;72192;52.114;5.424;2023-09-08T13:35:15;101703.75;;;37.57;32.56
81125;BME280;72192;52.114;5.424;2023-09-08T13:37:43;101703.72;;;37.48;32.57
81125;BME280;72192;52.114;5.424;2023-09-08T13:40:31;101705.19;;;37.85;31.84
81125;BME280;72192;52.114;5.424;2023-09-08T13:43:20;101704.03;;;37.78;31.76
81125;BME280;72192;52.114;5.424;2023-09-08T13:46:08;101704.09;;;37.02;33.89
81125;BME280;72192;52.114;5.424;2023-09-08T13:48:56;101698.44;;;37.02;31.86
81125;BME280;72192;52.114;5.424;2023-09-08T13:51:44;101689.09;;;36.70;33.11
81125;BME280;72192;52.114;5.424;2023-09-08T13:54:33;101690.88;;;36.30;33.57
81125;BME280;72192;52.114;5.424;2023-09-08T13:57:22;101690.09;;;36.52;34.19
81125;BME280;72192;52.114;5.424;2023-09-08T14:00:13;101689.09;;;36.70;33.68
81125;BME280;72192;52.114;5.424;2023-09-08T14:03:02;101684.31;;;37.24;33.02
81125;BME280;72192;52.114;5.424;2023-09-08T14:05:33;101689.44;;;37.53;32.38
81125;BME280;72192;52.114;5.424;2023-09-08T14:08:21;101693.72;;;37.82;31.74
81125;BME280;72192;52.114;5.424;2023-09-08T14:11:10;101682.72;;;38.81;30.44
81125;BME280;72192;52.114;5.424;2023-09-08T14:14:01;101688.88;;;38.65;30.34
81125;BME280;72192;52.114;5.424;2023-09-08T14:16:50;101681.22;;;38.40;29.75
81125;BME280;72192;52.114;5.424;2023-09-08T14:19:38;101680.88;;;38.93;29.55
81125;BME280;72192;52.114;5.424;2023-09-08T14:22:26;101674.69;;;39.64;28.46
81125;BME280;72192;52.114;5.424;2023-09-08T14:25:15;101676.03;;;39.88;27.83
81125;BME280;72192;52.114;5.424;2023-09-08T14:28:03;101670.19;;;40.22;27.03
81125;BME280;72192;52.114;5.424;2023-09-08T14:30:52;101673.78;;;40.52;27.09
81125;BME280;72192;52.114;5.424;2023-09-08T14:33:41;101667.81;;;40.66;26.81
81125;BME280;72192;52.114;5.424;2023-09-08T14:36:30;101663.00;;;40.79;26.64
81125;BME280;72192;52.114;5.424;2023-09-08T14:39:18;101662.13;;;40.99;25.46